F/v.oceane — FHDQ — position and weather

sailwx.info

Track history (hours):
 
Tides and Currents Weather Stations Pressure Air Temp Water Temp Dewpoint Dewpoint Depression Visibility Wind Speed Wind Dir Waves Ship Positions

F/v.oceane

Last reported at 2018-Jun-25 14:00 UTC. Time now 2018-Jun-25 14:15 UTC.
Position N 48°12' W 004°55'.

Length 18 m; draft 3.2 m.

Type: Fishing. MMSI: 228827000.

Date/timePositionNaut miles runAvg speedWind from/ knotsBaromVisibWave heightAir tempDewpointWater temp
2018-Jun-25 14:00N 48°12' W 004°55'1510.7
2018-Jun-25 12:39N 48°04' W 005°14'46 5.1
2018-Jun-25 03:33N 47°33' W 006°03'58 2.2
2018-Jun-24 01:38N 47°53' W 007°25'1 2.0
2018-Jun-24 00:53N 47°53' W 007°22'3 1.8
2018-Jun-23 22:58N 47°53' W 007°27'1 0.8
2018-Jun-23 21:39N 47°54' W 007°29'1 1.7
2018-Jun-23 20:58N 47°54' W 007°27'7 0.8
2018-Jun-23 12:33N 47°58' W 007°18'5 1.0
2018-Jun-23 07:53N 47°54' W 007°23'1 0.2
2018-Jun-23 01:43N 47°55' W 007°24'2 1.9
2018-Jun-23 00:33N 47°55' W 007°27'1 2.3
2018-Jun-22 23:58N 47°55' W 007°29'2 1.6
2018-Jun-22 22:58N 47°55' W 007°31'4 3.8
2018-Jun-22 21:53N 47°58' W 007°26'4 0.3
2018-Jun-22 09:53N 47°57' W 007°21'  
2018-Jun-18 03:48N 48°25' W 006°04'28 9.1
2018-Jun-18 00:43N 48°31' W 005°22'510.4
2018-Jun-18 00:17N 48°32' W 005°16'310.5
2018-Jun-18 00:00N 48°33' W 005°11'510.6
2018-Jun-17 23:31N 48°34' W 005°04'510.6
2018-Jun-17 23:00N 48°36' W 004°56'510.1
2018-Jun-17 22:31N 48°38' W 004°49'5 9.6
2018-Jun-17 22:00N 48°39' W 004°42'5 9.3
2018-Jun-17 21:30N 48°41' W 004°36'  
Track history (hours):
 
Tides and Currents Weather Stations Pressure Air Temp Water Temp Dewpoint Dewpoint Depression Visibility Wind Speed Wind Dir Waves Ship Positions

F/v.oceane

Last reported at 2018-Jun-25 14:00 UTC. Time now 2018-Jun-25 14:15 UTC.
Position N 48°12' W 004°55'.

Length 18 m; draft 3.2 m.

Type: Fishing. MMSI: 228827000.

Date/timePositionNaut miles runAvg speedWind from/ knotsBaromVisibWave heightAir tempDewpointWater temp
2018-Jun-25 14:00N 48°12' W 004°55'1510.7
2018-Jun-25 12:39N 48°04' W 005°14'46 5.1
2018-Jun-25 03:33N 47°33' W 006°03'58 2.2
2018-Jun-24 01:38N 47°53' W 007°25'1 2.0
2018-Jun-24 00:53N 47°53' W 007°22'3 1.8
2018-Jun-23 22:58N 47°53' W 007°27'1 0.8
2018-Jun-23 21:39N 47°54' W 007°29'1 1.7
2018-Jun-23 20:58N 47°54' W 007°27'7 0.8
2018-Jun-23 12:33N 47°58' W 007°18'5 1.0
2018-Jun-23 07:53N 47°54' W 007°23'1 0.2
2018-Jun-23 01:43N 47°55' W 007°24'2 1.9
2018-Jun-23 00:33N 47°55' W 007°27'1 2.3
2018-Jun-22 23:58N 47°55' W 007°29'2 1.6
2018-Jun-22 22:58N 47°55' W 007°31'4 3.8
2018-Jun-22 21:53N 47°58' W 007°26'4 0.3
2018-Jun-22 09:53N 47°57' W 007°21'  
2018-Jun-18 03:48N 48°25' W 006°04'28 9.1
2018-Jun-18 00:43N 48°31' W 005°22'510.4
2018-Jun-18 00:17N 48°32' W 005°16'310.5
2018-Jun-18 00:00N 48°33' W 005°11'510.6
2018-Jun-17 23:31N 48°34' W 005°04'510.6
2018-Jun-17 23:00N 48°36' W 004°56'510.1
2018-Jun-17 22:31N 48°38' W 004°49'5 9.6
2018-Jun-17 22:00N 48°39' W 004°42'5 9.3
2018-Jun-17 21:30N 48°41' W 004°36'  

Dump ship's entire track history